Time;durP1;ratioP1;P1;durP2;ratioP2;P2;SDS_P1;SDS_P2;PMS_P1;PMS_P2;Temp;Humidity;BMP_temperature;BMP_pressure;BME280_temperature;BME280_humidity;BME280_pressure;Samples;Min_cycle;Max_cycle;Signal;HPM_P1;HPM_P2
2021/12/01 00:01:11;;;;;;;34.97;33.20;;;;;;;20.49;44.76;99986.63;4955743;28;20033;-83
2021/12/01 00:03:37;;;;;;;34.63;32.92;;;;;;;20.49;44.59;99981.16;4956186;29;20441;-83
2021/12/01 00:06:03;;;;;;;33.70;31.88;;;;;;;20.48;44.74;99973.22;4955589;28;20060;-83
2021/12/01 00:08:29;;;;;;;35.42;33.63;;;;;;;20.47;44.77;99957.91;4939674;29;20035;-82
2021/12/01 00:10:54;;;;;;;35.80;34.00;;;;;;;20.47;44.55;99955.97;4956684;28;20031;-83
2021/12/01 00:13:21;;;;;;;35.00;33.20;;;;;;;20.46;44.42;99953.53;4956988;29;20051;-83
2021/12/01 00:15:49;;;;;;;33.88;32.17;;;;;;;20.46;44.63;99929.69;4956695;29;20046;-84
2021/12/01 00:18:15;;;;;;;35.10;33.33;;;;;;;20.46;44.53;99920.63;4955325;28;20031;-83
2021/12/01 00:20:41;;;;;;;33.65;31.90;;;;;;;20.45;44.79;99919.03;4956727;29;20031;-83
2021/12/01 00:23:08;;;;;;;34.85;32.95;;;;;;;20.45;44.55;99905.31;4939541;29;20098;-83
2021/12/01 00:25:39;;;;;;;34.58;32.72;;;;;;;20.45;44.39;99908.06;4956712;29;20031;-83
2021/12/01 00:28:05;;;;;;;34.53;32.75;;;;;;;20.44;44.60;99903.72;4940853;29;20035;-83
2021/12/01 00:30:30;;;;;;;33.30;31.60;;;;;;;20.43;44.51;99889.16;4939217;29;20138;-83
2021/12/01 00:32:56;;;;;;;33.97;32.33;;;;;;;20.44;44.65;99881.78;4956487;29;20114;-85
2021/12/01 00:35:22;;;;;;;34.33;32.63;;;;;;;20.43;44.60;99874.66;4955487;29;20110;-83
2021/12/01 00:37:48;;;;;;;33.38;31.77;;;;;;;20.42;44.74;99862.09;4955117;29;20042;-83
2021/12/01 00:40:14;;;;;;;33.10;31.40;;;;;;;20.42;44.55;99859.34;4956934;28;20035;-83
2021/12/01 00:42:40;;;;;;;33.20;31.50;;;;;;;20.41;44.73;99858.53;4956187;28;20086;-82
2021/12/01 00:45:17;;;;;;;34.05;32.25;;;;;;;20.41;44.66;99855.81;4938808;29;20138;-83
2021/12/01 00:47:45;;;;;;;34.10;32.40;;;;;;;20.39;44.90;99847.09;4940596;29;20031;-83
2021/12/01 00:50:14;;;;;;;32.85;31.25;;;;;;;20.40;44.57;99851.44;4939832;29;20036;-84
2021/12/01 00:52:39;;;;;;;32.58;30.98;;;;;;;20.39;44.59;99846.31;4956153;29;20448;-84
2021/12/01 00:55:06;;;;;;;32.30;30.70;;;;;;;20.38;44.63;99842.72;4956508;29;20032;-83
2021/12/01 00:57:32;;;;;;;34.50;32.70;;;;;;;20.38;44.65;99834.50;4955905;29;20046;-83
2021/12/01 00:59:57;;;;;;;32.95;31.30;;;;;;;20.37;44.71;99824.69;4956138;29;20043;-83
2021/12/01 01:02:23;;;;;;;34.22;32.40;;;;;;;20.36;44.79;99825.81;4938722;29;20432;-83
2021/12/01 01:04:50;;;;;;;33.00;31.30;;;;;;;20.36;44.80;99825.00;4955241;29;20122;-83
2021/12/01 01:07:15;;;;;;;34.30;32.63;;;;;;;20.35;44.55;99817.91;4938742;29;20074;-83
2021/12/01 01:09:43;;;;;;;32.97;31.38;;;;;;;20.35;44.93;99807.75;4955472;29;20472;-82
2021/12/01 01:17:38;;;;;;;33.15;31.55;;;;;;;20.33;44.80;99807.25;4955238;29;20399;-83
2021/12/01 01:20:09;;;;;;;32.90;31.30;;;;;;;20.32;44.91;99806.47;4955049;29;20375;-83
2021/12/01 01:22:35;;;;;;;34.30;32.53;;;;;;;20.31;44.65;99791.16;4955927;29;20037;-83
2021/12/01 01:25:00;;;;;;;34.67;32.97;;;;;;;20.31;44.98;99787.63;4938665;29;20122;-83
2021/12/01 01:27:25;;;;;;;34.00;32.20;;;;;;;20.29;44.89;99790.69;4955999;28;20388;-84
2021/12/01 01:29:51;;;;;;;32.33;30.73;;;;;;;20.30;45.03;99775.03;4955781;28;20046;-83
2021/12/01 01:32:16;;;;;;;32.58;31.02;;;;;;;20.29;44.67;99771.47;4938749;29;20095;-82
2021/12/01 01:34:42;;;;;;;33.20;31.60;;;;;;;20.29;44.88;99771.47;4954951;29;20447;-84
2021/12/01 01:37:07;;;;;;;33.85;32.15;;;;;;;20.28;44.95;99764.38;4954383;29;20046;-83
2021/12/01 01:39:33;;;;;;;33.05;31.35;;;;;;;20.28;44.65;99758.09;4938096;29;20126;-84
2021/12/01 01:41:58;;;;;;;32.83;31.23;;;;;;;20.28;44.85;99763.56;4955540;29;20399;-83
2021/12/01 01:44:24;;;;;;;33.10;31.50;;;;;;;20.27;44.90;99742.78;4955582;28;20031;-82
2021/12/01 01:46:50;;;;;;;31.92;30.42;;;;;;;20.26;44.78;99738.41;4955612;28;20369;-82
2021/12/01 01:49:19;;;;;;;32.88;31.27;;;;;;;20.26;44.73;99739.25;4954951;28;20039;-83
2021/12/01 01:51:47;;;;;;;32.50;30.90;;;;;;;20.26;44.77;99742.00;4954180;28;20365;-84
2021/12/01 01:54:13;;;;;;;31.40;29.90;;;;;;;20.25;44.75;99732.13;4954391;28;20041;-84
2021/12/01 01:56:39;;;;;;;33.33;31.73;;;;;;;20.25;45.13;99723.13;4926031;29;20118;-85
2021/12/01 01:59:04;;;;;;;32.70;31.10;;;;;;;20.24;44.73;99703.13;4959229;29;20451;-85
2021/12/01 02:01:46;;;;;;;32.97;31.30;;;;;;;20.24;44.80;99708.59;4942487;29;20114;-85
2021/12/01 02:04:17;;;;;;;32.50;30.90;;;;;;;20.23;44.80;99708.94;4958243;29;20391;-84
2021/12/01 02:06:47;;;;;;;31.92;30.42;;;;;;;20.23;44.93;99696.00;4958154;29;20041;-85
2021/12/01 02:09:14;;;;;;;32.40;30.80;;;;;;;20.22;44.85;99688.13;4959375;28;20035;-84
2021/12/01 02:11:40;;;;;;;33.90;32.00;;;;;;;20.21;44.74;99681.84;4958945;28;20031;-84
2021/12/01 02:14:06;;;;;;;32.25;30.65;;;;;;;20.22;44.77;99677.16;4958874;29;20032;-84
2021/12/01 02:16:33;;;;;;;33.60;31.90;;;;;;;20.21;44.98;99665.41;4957811;29;20050;-84
2021/12/01 02:18:58;;;;;;;32.70;31.10;;;;;;;20.21;44.69;99659.09;4941951;29;20057;-84
2021/12/01 02:21:28;;;;;;;33.00;31.25;;;;;;;20.21;45.02;99653.59;4958964;29;20476;-83
2021/12/01 02:23:57;;;;;;;32.13;30.52;;;;;;;20.19;45.08;99640.25;4957847;29;20031;-85
2021/12/01 02:26:25;;;;;;;33.08;31.42;;;;;;;20.20;44.79;99641.06;4958594;28;20047;-84
2021/12/01 02:28:54;;;;;;;32.50;30.90;;;;;;;20.19;45.20;99636.72;4959019;29;20035;-84
2021/12/01 02:31:22;;;;;;;32.17;30.65;;;;;;;20.19;44.79;99623.81;4957522;28;20430;-83
2021/12/01 02:33:48;;;;;;;32.42;30.83;;;;;;;20.18;44.79;99632.34;4957580;29;20101;-85
2021/12/01 02:36:14;;;;;;;32.83;31.23;;;;;;;20.19;44.70;99612.84;4941659;29;20122;-83
2021/12/01 02:38:43;;;;;;;33.05;31.45;;;;;;;20.18;44.86;99602.19;4957337;29;20031;-84
2021/12/01 02:41:09;;;;;;;32.10;30.60;;;;;;;20.17;44.97;99609.63;4957300;29;20484;-83
2021/12/01 02:43:35;;;;;;;34.20;32.50;;;;;;;20.16;44.77;99585.25;4957991;29;20031;-86
2021/12/01 02:46:01;;;;;;;32.60;31.00;;;;;;;20.16;44.90;99582.53;4940686;29;20098;-83
2021/12/01 02:48:26;;;;;;;34.28;32.53;;;;;;;20.16;44.63;99579.78;4940894;29;20039;-82
2021/12/01 02:50:54;;;;;;;33.13;31.52;;;;;;;20.17;44.78;99581.41;4940764;29;20039;-83
2021/12/01 02:53:22;;;;;;;33.05;31.45;;;;;;;20.15;44.81;99576.25;4958465;29;20031;-84
2021/12/01 02:55:52;;;;;;;32.95;31.35;;;;;;;20.15;44.77;99567.22;4941516;29;20090;-84
2021/12/01 02:58:19;;;;;;;31.73;30.23;;;;;;;20.14;44.96;99560.94;4956873;29;20539;-84
2021/12/01 03:00:44;;;;;;;32.97;31.38;;;;;;;20.14;44.85;99560.94;4941124;29;20085;-84
2021/12/01 03:03:11;;;;;;;33.45;31.85;;;;;;;20.14;44.62;99560.16;4941316;29;20130;-83
2021/12/01 03:05:38;;;;;;;33.53;31.83;;;;;;;20.14;44.91;99549.19;4957000;28;20047;-84
2021/12/01 03:08:04;;;;;;;32.33;30.55;;;;;;;20.13;44.72;99537.38;4940404;29;20131;-84
2021/12/01 03:10:29;;;;;;;34.25;32.50;;;;;;;20.13;44.85;99542.06;4958068;29;20062;-84
2021/12/01 03:12:56;;;;;;;33.33;31.73;;;;;;;20.12;45.12;99532.25;4940603;29;20054;-85
2021/12/01 03:15:22;;;;;;;31.23;29.73;;;;;;;20.13;44.84;99531.91;4956565;29;20039;-84
2021/12/01 03:17:47;;;;;;;33.10;31.50;;;;;;;20.12;44.96;99518.56;4956492;29;20035;-84
2021/12/01 03:20:14;;;;;;;33.53;31.83;;;;;;;20.12;44.87;99494.69;4957720;28;20062;-84
2021/12/01 03:22:43;;;;;;;33.05;31.45;;;;;;;20.12;44.93;99507.59;4956513;28;20383;-84
2021/12/01 03:25:11;;;;;;;33.38;31.77;;;;;;;20.10;44.90;99495.00;4957622;29;20070;-84
2021/12/01 03:27:36;;;;;;;33.05;31.42;;;;;;;20.11;44.98;99495.81;4957677;28;20062;-84
2021/12/01 03:30:04;;;;;;;33.28;31.67;;;;;;;20.12;44.67;99488.41;4940466;29;20071;-84
2021/12/01 03:32:30;;;;;;;32.22;30.67;;;;;;;20.10;44.95;99492.25;4940200;29;20037;-84
2021/12/01 03:34:55;;;;;;;33.50;31.90;;;;;;;20.09;44.74;99476.97;4957809;29;20114;-86
2021/12/01 03:37:21;;;;;;;32.60;30.92;;;;;;;20.09;44.88;99474.22;4939907;29;20027;-85
2021/12/01 03:39:46;;;;;;;33.33;31.73;;;;;;;20.09;44.74;99457.78;4940200;29;20027;-85
2021/12/01 03:42:11;;;;;;;32.53;30.92;;;;;;;20.08;44.88;99453.44;4940334;29;20036;-84
2021/12/01 03:44:37;;;;;;;32.95;31.35;;;;;;;20.08;44.90;99438.91;4940540;29;20043;-84
2021/12/01 03:47:02;;;;;;;31.38;29.88;;;;;;;20.08;44.52;99430.69;4957362;28;20476;-85
2021/12/01 03:49:28;;;;;;;32.22;30.70;;;;;;;20.07;44.87;99416.19;4940401;29;20085;-83
2021/12/01 03:51:54;;;;;;;32.33;30.83;;;;;;;20.08;44.88;99416.97;4940248;29;20031;-84
2021/12/01 03:54:19;;;;;;;31.65;30.15;;;;;;;20.08;44.88;99416.97;4940453;29;20038;-84
2021/12/01 03:56:45;;;;;;;33.80;32.10;;;;;;;20.07;44.92;99410.72;4956415;29;20031;-85
2021/12/01 03:59:10;;;;;;;32.70;31.13;;;;;;;20.07;44.67;99402.47;4957414;29;20067;-85
2021/12/01 04:01:36;;;;;;;33.80;32.10;;;;;;;20.07;44.84;99398.94;4939946;29;20067;-85
2021/12/01 04:04:02;;;;;;;32.72;31.13;;;;;;;20.06;44.81;99389.94;4940447;29;20059;-84
2021/12/01 04:06:27;;;;;;;32.60;31.00;;;;;;;20.06;44.40;99378.16;4939944;29;20114;-84
2021/12/01 04:08:55;;;;;;;32.70;31.10;;;;;;;20.05;44.87;99380.09;4955550;29;20469;-85
2021/12/01 04:11:21;;;;;;;31.80;30.20;;;;;;;20.05;44.87;99371.06;4956184;29;20082;-85
2021/12/01 04:13:46;;;;;;;33.78;32.08;;;;;;;20.05;44.86;99363.63;4956880;28;20457;-85
2021/12/01 04:16:12;;;;;;;33.03;31.42;;;;;;;20.05;44.65;99354.63;4956111;29;20039;-85
2021/12/01 04:18:39;;;;;;;33.70;32.00;;;;;;;20.04;44.55;99337.38;4939345;29;20167;-85
2021/12/01 04:21:04;;;;;;;32.95;31.35;;;;;;;20.04;44.70;99337.38;4956719;29;20031;-85
2021/12/01 04:23:30;;;;;;;32.28;30.77;;;;;;;20.04;44.56;99331.09;4957309;29;20035;-84
2021/12/01 04:25:56;;;;;;;32.78;31.17;;;;;;;20.04;44.63;99328.38;4957730;28;20038;-86
2021/12/01 04:28:22;;;;;;;32.58;31.02;;;;;;;20.03;44.96;99322.09;4940861;29;20031;-85
2021/12/01 04:30:47;;;;;;;33.60;31.92;;;;;;;20.03;44.56;99316.59;4956876;29;20468;-85
2021/12/01 04:33:13;;;;;;;32.08;30.50;;;;;;;20.03;44.55;99297.41;4940039;29;20046;-86
2021/12/01 04:35:38;;;;;;;32.50;30.90;;;;;;;20.02;44.72;99273.09;4956654;29;20027;-86
2021/12/01 04:38:04;;;;;;;33.78;32.17;;;;;;;20.02;44.83;99286.78;4939335;29;20112;-85
2021/12/01 04:40:29;;;;;;;32.78;31.20;;;;;;;20.01;44.65;99286.00;4939556;29;20039;-84
2021/12/01 04:42:55;;;;;;;32.28;30.77;;;;;;;20.03;44.61;99293.84;4955649;29;20392;-84
2021/12/01 04:45:22;;;;;;;33.20;31.60;;;;;;;20.02;45.02;99281.31;4956288;28;20165;-84
2021/12/01 04:47:51;;;;;;;32.75;31.05;;;;;;;20.03;44.71;99274.66;4956455;29;20054;-85
2021/12/01 04:50:18;;;;;;;32.38;30.77;;;;;;;20.01;44.65;99272.28;4956543;28;20043;-86
2021/12/01 04:52:45;;;;;;;33.22;31.50;;;;;;;20.01;44.78;99272.28;4956356;28;20127;-85
2021/12/01 04:55:11;;;;;;;32.47;30.88;;;;;;;20.02;44.97;99273.09;4956653;29;20499;-86
2021/12/01 04:57:41;;;;;;;33.80;32.17;;;;;;;20.02;44.67;99267.59;4956362;29;20027;-84
2021/12/01 05:00:11;;;;;;;32.38;30.80;;;;;;;20.00;44.68;99256.97;4939506;29;20276;-86
2021/12/01 05:02:36;;;;;;;33.22;31.50;;;;;;;20.00;44.55;99256.19;4956568;29;20059;-85
2021/12/01 05:05:02;;;;;;;32.55;30.95;;;;;;;20.00;44.60;99254.22;4956162;29;20042;-86
2021/12/01 05:07:27;;;;;;;34.25;32.55;;;;;;;19.99;44.71;99235.41;4955922;29;20510;-85
2021/12/01 05:09:54;;;;;;;33.17;31.58;;;;;;;19.99;44.46;99213.47;4956778;29;20031;-85
2021/12/01 05:12:19;;;;;;;32.20;30.70;;;;;;;19.99;44.53;99233.47;4956342;29;20046;-86
2021/12/01 05:14:45;;;;;;;33.20;31.50;;;;;;;19.99;44.57;99224.44;4938972;29;20396;-85
2021/12/01 05:17:10;;;;;;;32.50;30.92;;;;;;;19.98;44.58;99222.81;4939192;29;20468;-86
2021/12/01 05:19:35;;;;;;;31.83;30.30;;;;;;;19.99;44.67;99224.44;4955993;28;20023;-83
2021/12/01 05:22:02;;;;;;;31.65;30.15;;;;;;;19.98;44.66;99222.81;4938601;29;20039;-85
2021/12/01 05:24:28;;;;;;;31.27;29.77;;;;;;;19.98;44.34;99206.38;4954603;28;20075;-86
2021/12/01 05:26:53;;;;;;;32.80;31.10;;;;;;;19.97;44.49;99204.78;4954937;28;20054;-86
2021/12/01 05:29:20;;;;;;;32.38;30.85;;;;;;;19.96;44.43;99201.25;4938233;29;20044;-85
2021/12/01 05:31:46;;;;;;;32.50;30.90;;;;;;;19.97;44.48;99191.09;4955640;29;20149;-86
2021/12/01 05:34:11;;;;;;;31.08;29.58;;;;;;;19.97;44.36;99193.84;4955547;28;20118;-85
2021/12/01 05:36:36;;;;;;;31.88;30.35;;;;;;;19.96;44.59;99192.22;4956096;29;20035;-83
2021/12/01 05:39:03;;;;;;;31.85;30.35;;;;;;;19.96;44.39;99186.72;4938694;29;20092;-86
2021/12/01 05:41:28;;;;;;;32.75;31.15;;;;;;;19.95;44.33;99179.66;4954814;28;20427;-84
2021/12/01 05:43:54;;;;;;;33.53;31.90;;;;;;;19.95;44.55;99187.88;4939180;29;20032;-85
2021/12/01 05:46:19;;;;;;;31.73;30.23;;;;;;;19.95;44.44;99176.94;4938157;29;20075;-84
2021/12/01 05:48:45;;;;;;;33.08;31.38;;;;;;;19.94;44.50;99161.63;4954094;28;20051;-84
2021/12/01 05:51:10;;;;;;;31.63;30.13;;;;;;;19.94;44.67;99167.91;4954308;29;20043;-85
2021/12/01 05:53:35;;;;;;;31.52;30.02;;;;;;;19.94;44.62;99161.63;4954670;28;20035;-85
2021/12/01 05:56:01;;;;;;;32.85;31.25;;;;;;;19.94;44.60;99153.41;4938726;29;20049;-86
2021/12/01 05:58:27;;;;;;;32.25;30.75;;;;;;;19.93;44.77;99154.53;4938486;29;20035;-85
2021/12/01 06:00:53;;;;;;;33.67;31.98;;;;;;;19.93;44.46;99149.06;4954253;29;20053;-86
2021/12/01 06:03:18;;;;;;;32.13;30.63;;;;;;;19.92;44.35;99142.78;4954554;29;20039;-86
2021/12/01 06:05:44;;;;;;;33.85;32.15;;;;;;;19.93;44.62;99127.13;4938252;29;20116;-85
2021/12/01 06:08:09;;;;;;;32.20;30.67;;;;;;;19.94;44.55;99121.31;4955412;28;20037;-83
2021/12/01 06:10:35;;;;;;;31.90;30.40;;;;;;;19.97;44.42;99103.41;4953831;28;20027;-84
2021/12/01 06:13:01;;;;;;;31.92;30.33;;;;;;;19.97;44.48;99119.84;4955238;29;20448;-82
2021/12/01 06:15:26;;;;;;;31.95;30.35;;;;;;;19.96;44.50;99110.00;4954994;28;20043;-83
2021/12/01 06:17:52;;;;;;;32.25;30.65;;;;;;;19.96;44.44;99108.09;4955231;29;20123;-82
2021/12/01 06:20:17;;;;;;;33.53;31.92;;;;;;;19.95;44.51;99095.50;4954684;28;20043;-83
2021/12/01 06:22:44;;;;;;;45.35;39.28;;;;;;;19.94;44.64;99099.41;4938455;29;20032;-86
2021/12/01 06:25:09;;;;;;;34.90;32.10;;;;;;;19.97;44.96;99082.25;4955220;29;20031;-77
2021/12/01 06:27:36;;;;;;;36.58;33.65;;;;;;;19.99;45.43;99084.66;4954614;29;20042;-78
2021/12/01 06:30:02;;;;;;;35.38;32.70;;;;;;;19.99;45.45;99082.72;4954790;29;20035;-79
2021/12/01 06:32:27;;;;;;;36.63;33.60;;;;;;;20.00;45.59;99075.28;4954594;29;20046;-77
2021/12/01 06:34:53;;;;;;;37.72;35.03;;;;;;;19.99;45.43;99079.19;4937644;29;20396;-79
2021/12/01 06:37:18;;;;;;;35.70;33.03;;;;;;;20.00;45.56;99070.59;4954620;29;20039;-79
2021/12/01 06:39:45;;;;;;;35.42;32.78;;;;;;;19.99;45.30;99071.75;4954919;29;20387;-78
2021/12/01 06:42:11;;;;;;;36.53;33.35;;;;;;;20.00;45.57;99064.31;4941179;29;20047;-79
2021/12/01 06:44:36;;;;;;;36.00;33.33;;;;;;;20.00;45.51;99065.13;4958422;29;20414;-79
2021/12/01 06:47:03;;;;;;;34.70;32.13;;;;;;;19.99;45.57;99057.25;4940854;29;20061;-78
2021/12/01 06:49:28;;;;;;;35.78;33.58;;;;;;;19.99;45.19;99051.78;4957454;28;20126;-78
2021/12/01 06:51:54;;;;;;;35.78;33.33;;;;;;;19.99;45.49;99058.06;4958516;28;20117;-78
2021/12/01 06:54:20;;;;;;;33.30;31.23;;;;;;;19.98;45.33;99061.94;4958605;29;20041;-75
2021/12/01 06:56:45;;;;;;;34.90;32.75;;;;;;;19.99;45.23;99060.00;4958219;29;20031;-78
2021/12/01 06:59:11;;;;;;;35.53;33.38;;;;;;;19.97;45.19;99054.84;4957877;29;20036;-78
2021/12/01 07:01:36;;;;;;;34.13;32.28;;;;;;;19.97;45.16;99051.31;4957730;29;20539;-77
2021/12/01 07:04:02;;;;;;;34.53;32.40;;;;;;;19.97;45.07;99046.63;4957599;29;20090;-77
2021/12/01 07:06:27;;;;;;;34.97;32.90;;;;;;;19.97;45.25;99059.53;4958076;29;20039;-77
2021/12/01 07:08:54;;;;;;;35.38;33.28;;;;;;;19.97;45.15;99046.63;4958192;29;20094;-77
2021/12/01 07:11:20;;;;;;;33.92;32.03;;;;;;;19.97;45.32;99040.38;4957433;29;20360;-77
2021/12/01 07:13:45;;;;;;;33.83;31.52;;;;;;;19.96;45.39;99042.31;4940721;29;20032;-79
2021/12/01 07:16:11;;;;;;;33.60;31.73;;;;;;;19.95;45.14;99048.91;4940902;29;20420;-78
2021/12/01 07:18:37;;;;;;;33.88;31.65;;;;;;;19.95;45.33;99046.19;4956154;29;20031;-78
2021/12/01 07:21:04;;;;;;;33.75;31.73;;;;;;;19.94;45.23;99044.59;4940124;29;20040;-77
2021/12/01 07:23:30;;;;;;;32.08;29.90;;;;;;;19.94;45.04;99055.56;4924593;29;20046;-78
2021/12/01 07:25:55;;;;;;;33.47;31.63;;;;;;;19.95;45.00;99048.91;4940566;29;20039;-78
2021/12/01 07:28:20;;;;;;;32.42;30.58;;;;;;;19.94;44.87;99047.34;4957395;28;20038;-76
2021/12/01 07:30:46;;;;;;;32.05;30.42;;;;;;;19.93;44.75;99037.50;4957065;28;20084;-84
2021/12/01 07:33:11;;;;;;;33.33;31.63;;;;;;;19.94;44.94;99028.16;4955959;29;20031;-84
2021/12/01 07:35:36;;;;;;;32.55;30.85;;;;;;;19.97;44.92;99029.41;4957344;29;20042;-84
2021/12/01 07:38:02;;;;;;;33.33;31.35;;;;;;;20.00;45.36;99023.22;4957038;29;20046;-82
2021/12/01 07:40:27;;;;;;;32.17;30.13;;;;;;;20.01;45.28;99033.06;4941464;29;20047;-81
2021/12/01 07:42:53;;;;;;;33.67;31.73;;;;;;;20.03;45.30;99026.09;4959042;29;20034;-83
2021/12/01 07:45:18;;;;;;;33.75;32.05;;;;;;;20.06;45.62;99039.09;4956566;29;20035;-83
2021/12/01 07:47:44;;;;;;;32.67;30.70;;;;;;;20.09;45.59;99021.16;4940986;29;20461;-84
2021/12/01 07:50:10;;;;;;;31.40;29.90;;;;;;;20.12;45.51;99014.97;4957551;29;20087;-79
2021/12/01 07:52:36;;;;;;;33.13;31.42;;;;;;;20.15;45.42;99008.78;4955761;28;20093;-81
2021/12/01 07:55:03;;;;;;;34.25;32.45;;;;;;;20.18;45.22;99002.59;4956644;28;20047;-81
2021/12/01 07:57:29;;;;;;;34.28;32.47;;;;;;;20.20;45.04;99002.25;4956685;29;20038;-85
2021/12/01 07:59:54;;;;;;;34.30;32.10;;;;;;;20.23;45.24;99001.53;4955729;28;20039;-83
2021/12/01 08:02:20;;;;;;;33.30;31.55;;;;;;;20.24;45.35;98992.97;4939888;29;20402;-82
2021/12/01 08:04:45;;;;;;;33.70;32.00;;;;;;;20.27;45.34;98996.97;4939690;29;20397;-83
2021/12/01 08:07:11;;;;;;;32.28;30.70;;;;;;;20.29;45.33;98995.47;4957067;29;20102;-88
2021/12/01 08:09:36;;;;;;;34.90;33.20;;;;;;;20.31;45.08;99001.41;4957846;28;20490;-88
2021/12/01 08:12:02;;;;;;;33.33;31.63;;;;;;;20.34;45.23;99005.38;4956632;28;20032;-83
2021/12/01 08:14:27;;;;;;;34.03;32.33;;;;;;;20.37;45.13;98999.19;4957225;28;20094;-89
2021/12/01 08:16:54;;;;;;;35.13;33.33;;;;;;;20.38;44.83;98995.28;4957030;29;20039;-82
2021/12/01 08:19:21;;;;;;;33.30;31.52;;;;;;;20.41;45.00;98993.78;4956926;28;20027;-86
2021/12/01 08:21:49;;;;;;;35.42;33.55;;;;;;;20.44;44.73;98987.63;4956727;28;20031;-83
2021/12/01 08:24:15;;;;;;;33.20;31.50;;;;;;;20.44;44.73;98988.41;4956756;29;20081;-92
2021/12/01 08:26:43;;;;;;;34.10;32.40;;;;;;;20.46;45.13;98980.66;4956178;29;20039;-85
2021/12/01 08:29:09;;;;;;;34.45;32.75;;;;;;;20.49;44.93;98984.63;4955626;28;20043;-81
2021/12/01 08:31:34;;;;;;;34.75;32.95;;;;;;;20.50;44.78;98978.78;4957053;29;20046;-81
2021/12/01 08:34:00;;;;;;;35.40;33.50;;;;;;;20.52;44.62;98976.47;4956600;28;20031;-84
2021/12/01 08:36:25;;;;;;;33.17;31.58;;;;;;;20.54;44.71;98970.66;4956070;29;20158;-83
2021/12/01 08:38:51;;;;;;;35.25;33.35;;;;;;;20.55;44.53;98975.00;4938365;29;20042;-81
2021/12/01 08:41:16;;;;;;;33.88;32.25;;;;;;;20.56;44.74;98979.34;4939231;29;20075;-82
2021/12/01 08:43:42;;;;;;;34.38;32.67;;;;;;;20.57;44.35;98964.50;4956207;29;20071;-81
2021/12/01 08:46:08;;;;;;;34.53;32.83;;;;;;;20.58;44.59;98952.34;4955763;28;20031;-83
2021/12/01 08:48:35;;;;;;;34.88;33.15;;;;;;;20.59;44.47;98956.72;4956031;29;20051;-85
2021/12/01 08:51:02;;;;;;;34.00;32.30;;;;;;;20.60;44.14;98977.50;4955957;29;20090;-83
2021/12/01 08:53:32;;;;;;;35.13;33.33;;;;;;;20.61;44.20;98970.84;4956153;28;20043;-84
2021/12/01 08:55:59;;;;;;;33.50;31.80;;;;;;;20.63;44.24;98973.25;4939241;29;20035;-82
2021/12/01 08:58:26;;;;;;;36.88;35.08;;;;;;;20.64;43.80;98972.91;4955418;29;20058;-82
2021/12/01 09:00:53;;;;;;;34.65;32.92;;;;;;;20.66;44.11;98980.75;4955500;29;20031;-83
2021/12/01 09:03:18;;;;;;;35.67;33.80;;;;;;;20.65;44.24;98982.72;4954113;28;20534;-84
2021/12/01 09:05:45;;;;;;;34.85;33.05;;;;;;;20.66;44.01;98984.31;4954813;28;20039;-83
2021/12/01 09:08:12;;;;;;;34.15;32.45;;;;;;;20.68;44.16;98992.19;4954486;29;20476;-83
2021/12/01 09:10:38;;;;;;;34.30;32.60;;;;;;;20.68;44.13;99001.22;4955578;29;20055;-87
2021/12/01 09:13:05;;;;;;;36.25;34.35;;;;;;;20.70;43.73;99020.06;4956020;29;20027;-85
2021/12/01 09:15:31;;;;;;;34.22;32.42;;;;;;;20.70;43.77;99012.63;4939371;29;20039;-78
2021/12/01 09:17:57;;;;;;;36.88;34.97;;;;;;;20.72;43.93;99012.28;4955162;28;20097;-82
2021/12/01 09:20:23;;;;;;;35.42;33.63;;;;;;;20.71;43.66;99006.00;4955700;29;20127;-82
2021/12/01 09:22:48;;;;;;;35.30;33.58;;;;;;;20.73;43.94;99011.91;4955279;28;20469;-80
2021/12/01 09:25:14;;;;;;;36.25;34.47;;;;;;;20.73;43.67;99011.13;4954034;29;20039;-84
2021/12/01 09:27:39;;;;;;;34.28;32.58;;;;;;;20.73;43.64;99008.38;4955332;28;20082;-85
2021/12/01 09:30:07;;;;;;;35.70;33.80;;;;;;;20.73;43.74;99027.59;4955858;28;20047;-86
2021/12/01 09:32:37;;;;;;;34.92;33.17;;;;;;;20.73;43.22;99022.91;4956078;28;20033;-84
2021/12/01 09:35:03;;;;;;;35.53;33.63;;;;;;;20.73;43.15;99027.59;4955493;29;20047;-84
2021/12/01 09:37:29;;;;;;;34.72;32.92;;;;;;;20.74;42.98;99040.97;4954330;29;20036;-84
2021/12/01 09:39:54;;;;;;;33.92;32.20;;;;;;;20.73;43.38;99028.38;4955551;29;20027;-84
2021/12/01 09:42:21;;;;;;;35.05;33.38;;;;;;;20.75;43.07;99041.75;4955170;29;20040;-83
2021/12/01 09:44:48;;;;;;;35.15;33.35;;;;;;;20.75;43.20;99033.53;4938520;29;20111;-83
2021/12/01 09:47:18;;;;;;;35.55;33.85;;;;;;;20.73;43.06;99031.13;4953587;28;20048;-83
2021/12/01 09:49:44;;;;;;;34.22;32.53;;;;;;;20.74;42.98;99035.47;4955654;28;20379;-83
2021/12/01 09:52:10;;;;;;;35.55;33.75;;;;;;;20.74;42.87;99035.47;4955418;29;20054;-88
2021/12/01 09:54:36;;;;;;;35.15;33.30;;;;;;;20.73;42.90;99038.56;4956025;29;20428;-85
2021/12/01 09:57:02;;;;;;;36.63;34.72;;;;;;;20.72;43.09;99037.78;4938517;29;20425;-84
2021/12/01 09:59:28;;;;;;;33.35;31.75;;;;;;;20.70;42.81;99034.59;4955607;28;20481;-85
2021/12/01 10:01:53;;;;;;;34.00;31.98;;;;;;;20.71;42.95;99043.59;4955354;28;20028;-84
2021/12/01 10:04:19;;;;;;;35.15;33.05;;;;;;;20.70;42.76;99051.03;4938424;29;20388;-83
2021/12/01 10:06:44;;;;;;;36.95;35.15;;;;;;;20.71;42.77;99049.09;4954728;29;20066;-80
2021/12/01 10:09:11;;;;;;;35.13;33.22;;;;;;;20.71;42.67;99047.16;4954308;28;20075;-80
2021/12/01 10:11:41;;;;;;;34.55;32.70;;;;;;;20.72;42.67;99047.97;4954911;29;20460;-85
2021/12/01 10:14:18;;;;;;;36.15;34.05;;;;;;;20.73;42.52;99052.28;4938275;29;20039;-84
2021/12/01 10:16:44;;;;;;;35.85;33.83;;;;;;;20.73;42.28;99044.84;4957478;28;20031;-85
2021/12/01 10:19:12;;;;;;;33.90;32.10;;;;;;;20.74;42.76;99043.72;4942567;29;20031;-88
2021/12/01 10:21:41;;;;;;;36.67;34.67;;;;;;;20.75;42.31;99039.81;4960229;28;20089;-88
2021/12/01 10:24:12;;;;;;;35.30;33.05;;;;;;;20.75;42.11;99039.81;4957983;28;20482;-83
2021/12/01 10:26:43;;;;;;;34.05;32.28;;;;;;;20.75;42.22;99033.53;4958496;29;20039;-82
2021/12/01 10:29:15;;;;;;;35.38;33.33;;;;;;;20.75;42.03;99036.28;4957511;29;20395;-89
2021/12/01 10:31:45;;;;;;;34.42;32.42;;;;;;;20.75;41.87;99044.50;4958210;28;20333;-86
2021/12/01 10:34:23;;;;;;;35.38;33.17;;;;;;;20.74;41.66;99030.00;4957056;28;20122;-84
2021/12/01 10:37:06;;;;;;;34.95;32.67;;;;;;;20.74;41.85;99029.22;4958837;29;20031;-85
2021/12/01 10:39:31;;;;;;;35.60;33.50;;;;;;;20.74;41.73;99020.97;4958433;29;20074;-85
2021/12/01 10:42:06;;;;;;;34.65;32.42;;;;;;;20.75;41.61;99020.59;4957193;29;20035;-84
2021/12/01 10:44:32;;;;;;;33.45;31.65;;;;;;;20.75;41.52;99020.59;4957484;29;20108;-81
2021/12/01 10:47:07;;;;;;;33.03;31.20;;;;;;;20.75;41.71;99025.31;4957001;28;20078;-82
2021/12/01 10:49:36;;;;;;;32.25;30.70;;;;;;;20.74;41.42;99016.28;4958079;29;20380;-86
2021/12/01 10:52:01;;;;;;;34.10;32.40;;;;;;;20.74;41.62;99021.75;4957913;29;20067;-79
2021/12/01 10:54:27;;;;;;;32.88;31.27;;;;;;;20.75;41.29;99025.31;4958954;29;20055;-86
2021/12/01 10:57:19;;;;;;;34.17;32.25;;;;;;;20.73;41.24;99022.91;4941188;29;20043;-84
2021/12/01 10:59:51;;;;;;;32.40;30.60;;;;;;;20.73;41.20;99022.91;4940791;29;20035;-88
2021/12/01 11:02:19;;;;;;;33.70;31.92;;;;;;;20.73;41.54;99036.63;4956769;29;20023;-79
2021/12/01 11:04:48;;;;;;;33.25;31.60;;;;;;;20.73;41.78;99033.88;4957343;28;20035;-80
2021/12/01 11:07:43;;;;;;;35.28;33.45;;;;;;;20.73;41.79;99036.63;4957580;29;20082;-79
2021/12/01 11:10:20;;;;;;;35.65;33.83;;;;;;;20.76;41.95;99037.84;4944269;29;20055;-80
2021/12/01 11:13:02;;;;;;;34.00;32.10;;;;;;;20.77;41.75;99038.69;4957530;29;20039;-80
2021/12/01 11:15:33;;;;;;;33.97;32.28;;;;;;;20.78;42.20;99029.28;4957806;29;20444;-78
2021/12/01 11:18:00;;;;;;;32.00;30.17;;;;;;;20.79;42.07;99030.88;4957450;29;20031;-77
2021/12/01 11:20:49;;;;;;;33.90;31.90;;;;;;;20.80;42.15;99043.44;4957263;29;20035;-79